Time;durP1;ratioP1;P1;durP2;ratioP2;P2;SDS_P1;SDS_P2;PMS_P1;PMS_P2;Temp;Humidity;BMP_temperature;BMP_pressure;BME280_temperature;BME280_humidity;BME280_pressure;Samples;Min_cycle;Max_cycle;Signal;HPM_P1;HPM_P2
2024/04/14 00:01:31;;;;;;;;;;;;;;;-144.99;88.41;52472.56;5363603;26;20385;-66
2024/04/14 00:04:00;;;;;;;;;;;;;;;-144.99;88.86;52429.75;5369540;26;19938;-66
2024/04/14 00:06:29;;;;;;;;;;;;;;;-144.99;89.18;52480.72;5367452;26;19934;-67
2024/04/14 00:08:54;;;;;;;;;;;;;;;-144.99;89.45;52456.25;5366960;26;20380;-66
2024/04/14 00:11:23;;;;;;;;;;;;;;;-144.99;89.74;52464.41;5365698;26;19959;-66
2024/04/14 00:13:49;;;;;;;;;;;;;;;-144.99;89.76;52444.03;5367129;26;20174;-67
2024/04/14 00:16:18;;;;;;;;;;;;;;;-144.99;89.38;52488.84;5368959;26;20640;-67
2024/04/14 00:18:44;;;;;;;;;;;;;;;-144.99;89.71;52452.16;5372157;26;19941;-67
2024/04/14 00:21:15;;;;;;;;;;;;;;;-144.99;90.03;52482.75;5368939;26;20007;-66
2024/04/14 00:23:41;;;;;;;;;;;;;;;-144.99;90.14;52454.22;5366607;26;19941;-67
2024/04/14 00:26:10;;;;;;;;;;;;;;;-144.99;90.07;52464.41;5370826;26;20427;-67
2024/04/14 00:28:36;;;;;;;;;;;;;;;-144.99;90.69;52431.78;4985369;26;10000053;-66
2024/04/14 00:31:05;;;;;;;;;;;;;;;-144.99;90.49;52464.41;5362241;26;19930;-66
2024/04/14 00:33:31;;;;;;;;;;;;;;;-144.99;90.62;52484.78;5373069;26;19941;-67
2024/04/14 00:35:59;;;;;;;;;;;;;;;-144.99;91.12;52492.94;5364871;26;19930;-63
2024/04/14 00:38:28;;;;;;;;;;;;;;;-144.99;90.86;52464.41;5366209;26;20577;-65
2024/04/14 00:40:57;;;;;;;;;;;;;;;-144.99;90.78;52460.31;5379270;26;19929;-71
2024/04/14 00:43:23;;;;;;;;;;;;;;;-144.99;90.76;52444.03;5369958;26;19937;-71
2024/04/14 00:45:52;;;;;;;;;;;;;;;-144.99;91.84;52507.19;5376487;26;19933;-70
2024/04/14 00:48:18;;;;;;;;;;;;;;;-144.99;93.45;52446.06;5375257;26;19934;-71
2024/04/14 00:50:48;;;;;;;;;;;;;;;-144.99;93.55;52476.63;5357404;26;19937;-69
2024/04/14 00:53:14;;;;;;;;;;;;;;;-144.99;95.08;52464.41;5373160;26;19933;-70
2024/04/14 00:55:46;;;;;;;;;;;;;;;-144.99;96.69;52484.78;5377848;26;20195;-70
2024/04/14 00:58:12;;;;;;;;;;;;;;;-144.99;96.90;52454.22;5358105;26;20236;-69
2024/04/14 01:00:42;;;;;;;;;;;;;;;-144.99;97.40;52474.59;5361698;26;20319;-71
2024/04/14 01:03:07;;;;;;;;;;;;;;;-144.99;98.07;52472.56;5374709;26;19936;-71
2024/04/14 01:05:36;;;;;;;;;;;;;;;-144.99;98.99;52476.63;5371972;26;20343;-71
2024/04/14 01:08:02;;;;;;;;;;;;;;;-144.99;99.55;52476.63;5373971;26;19938;-70
2024/04/14 01:10:32;;;;;;;;;;;;;;;-144.99;99.64;52460.31;5366267;26;20051;-71
2024/04/14 01:13:01;;;;;;;;;;;;;;;-144.99;100.00;52423.63;5372129;26;19936;-71
2024/04/14 01:15:31;;;;;;;;;;;;;;;-144.99;99.97;52437.91;5368107;26;19999;-66
2024/04/14 01:17:56;;;;;;;;;;;;;;;-144.99;100.00;52462.34;5370744;26;20336;-67
2024/04/14 01:20:27;;;;;;;;;;;;;;;-144.99;100.00;52472.56;5370655;26;19975;-65
2024/04/14 01:22:53;;;;;;;;;;;;;;;-144.99;99.95;52435.88;5374494;26;19929;-64
2024/04/14 01:25:25;;;;;;;;;;;;;;;-144.99;100.00;52456.25;5370662;26;20350;-64
2024/04/14 01:27:51;;;;;;;;;;;;;;;-144.99;100.00;52476.63;5366717;26;19995;-65
2024/04/14 01:30:20;;;;;;;;;;;;;;;-144.99;100.00;52456.25;5374304;26;19936;-66
2024/04/14 01:32:45;;;;;;;;;;;;;;;-144.99;99.39;52435.88;5370129;26;19929;-68
2024/04/14 01:35:14;;;;;;;;;;;;;;;-144.99;99.74;52435.88;5372966;26;19937;-66
2024/04/14 01:37:40;;;;;;;;;;;;;;;-144.99;99.73;52474.59;5364598;26;20269;-66
2024/04/14 01:40:11;;;;;;;;;;;;;;;-144.99;99.90;52468.47;5361832;26;20183;-67
2024/04/14 01:42:40;;;;;;;;;;;;;;;-144.99;99.68;52476.63;5369553;26;19965;-66
2024/04/14 01:45:09;;;;;;;;;;;;;;;-144.99;98.84;52480.72;5373575;26;19942;-67
2024/04/14 01:47:36;;;;;;;;;;;;;;;-144.99;99.12;52476.63;5365487;26;19930;-65
2024/04/14 01:50:04;;;;;;;;;;;;;;;-144.99;99.01;52427.72;5369110;26;19929;-68
2024/04/14 01:52:30;;;;;;;;;;;;;;;-144.99;98.70;52462.34;5372549;26;19937;-66
2024/04/14 01:54:59;;;;;;;;;;;;;;;-144.99;98.20;52480.72;5359480;26;19937;-68
2024/04/14 01:57:25;;;;;;;;;;;;;;;-144.99;96.98;52472.56;5367136;26;20459;-67
2024/04/14 01:59:56;;;;;;;;;;;;;;;-144.99;95.75;52497.00;5370406;26;19933;-66
2024/04/14 02:02:22;;;;;;;;;;;;;;;-144.99;95.28;52476.63;5369445;26;19940;-73
2024/04/14 02:04:50;;;;;;;;;;;;;;;-144.99;94.09;52431.78;5373256;26;19933;-72
2024/04/14 02:07:16;;;;;;;;;;;;;;;-144.99;93.28;52480.72;5370324;26;20072;-72
2024/04/14 02:09:44;;;;;;;;;;;;;;;-144.99;93.13;52476.63;5365460;26;19946;-76
2024/04/14 02:12:11;;;;;;;;;;;;;;;-144.99;92.58;52468.47;5378969;26;19969;-74
2024/04/14 02:14:39;;;;;;;;;;;;;;;-144.99;92.38;52492.94;5377304;26;19933;-73
2024/04/14 02:17:08;;;;;;;;;;;;;;;-144.99;92.13;52490.91;5369554;26;19929;-72
2024/04/14 02:19:37;;;;;;;;;;;;;;;-144.99;92.59;52492.94;5375835;26;20167;-67
2024/04/14 02:22:03;;;;;;;;;;;;;;;-144.99;92.35;52490.91;5371478;26;19957;-68
2024/04/14 02:24:32;;;;;;;;;;;;;;;-144.99;92.19;52468.47;5370196;26;19941;-67
2024/04/14 02:26:58;;;;;;;;;;;;;;;-144.99;91.62;52484.78;5368209;26;19929;-66
2024/04/14 02:29:26;;;;;;;;;;;;;;;-144.99;92.28;52509.25;5370006;26;20358;-66
2024/04/14 02:31:52;;;;;;;;;;;;;;;-144.99;92.33;52468.47;5370688;26;19929;-66
2024/04/14 02:34:23;;;;;;;;;;;;;;;-144.99;92.20;52503.13;5372356;26;19936;-65
2024/04/14 02:36:49;;;;;;;;;;;;;;;-144.99;91.74;52503.13;5379347;26;19994;-65
2024/04/14 02:39:19;;;;;;;;;;;;;;;-144.99;91.25;52464.41;5374824;26;20274;-65
2024/04/14 02:41:45;;;;;;;;;;;;;;;-144.99;91.04;52521.47;5380286;26;19934;-66
2024/04/14 02:44:15;;;;;;;;;;;;;;;-144.99;90.62;52462.34;5363877;26;19986;-67
2024/04/14 02:46:41;;;;;;;;;;;;;;;-144.99;89.79;52468.47;5369081;26;19937;-67
2024/04/14 02:49:09;;;;;;;;;;;;;;;-144.99;89.21;52482.75;5376515;26;19929;-66
2024/04/14 02:51:41;;;;;;;;;;;;;;;-144.99;89.40;52501.09;5368872;26;19933;-66
2024/04/14 02:54:10;;;;;;;;;;;;;;;-144.99;89.04;52509.25;5370776;26;19950;-71
2024/04/14 02:56:36;;;;;;;;;;;;;;;-144.99;88.33;52525.56;5375838;26;19929;-67
2024/04/14 02:59:04;;;;;;;;;;;;;;;-144.99;87.85;52452.16;5374642;26;20326;-68
2024/04/14 03:01:30;;;;;;;;;;;;;;;-144.99;87.77;52488.84;5376206;26;19934;-68
2024/04/14 03:03:59;;;;;;;;;;;;;;;-144.99;88.21;52468.47;5368844;26;20002;-67
2024/04/14 03:06:25;;;;;;;;;;;;;;;-144.99;88.07;52478.66;5369317;26;19941;-68
2024/04/14 03:08:56;;;;;;;;;;;;;;;-144.99;87.93;52464.41;5378765;26;19958;-67
2024/04/14 03:11:22;;;;;;;;;;;;;;;-144.99;87.73;52492.94;5366637;26;20310;-67
2024/04/14 03:13:51;;;;;;;;;;;;;;;-144.99;88.30;52474.59;5361775;26;19964;-67
2024/04/14 03:16:17;;;;;;;;;;;;;;;-144.99;88.16;52507.19;5373373;26;19929;-67
2024/04/14 03:18:48;;;;;;;;;;;;;;;-144.99;88.05;52480.72;5370556;26;20239;-66
2024/04/14 03:21:14;;;;;;;;;;;;;;;-144.99;87.72;52482.75;5366040;26;19929;-66
2024/04/14 03:23:43;;;;;;;;;;;;;;;-144.99;88.31;52490.91;5376667;26;19962;-66
2024/04/14 03:26:11;;;;;;;;;;;;;;;-144.99;88.15;52492.94;5369080;26;20209;-65
2024/04/14 03:28:40;;;;;;;;;;;;;;;-144.99;87.89;52444.03;5374214;26;19937;-66
2024/04/14 03:31:06;;;;;;;;;;;;;;;-144.99;88.16;52497.00;5359447;26;19945;-69
2024/04/14 03:33:34;;;;;;;;;;;;;;;-144.99;88.05;52486.81;5372826;26;19937;-69
2024/04/14 03:36:01;;;;;;;;;;;;;;;-144.99;87.99;52456.25;5373783;26;19938;-68
2024/04/14 03:38:30;;;;;;;;;;;;;;;-144.99;88.25;52494.97;5370415;26;20028;-67
2024/04/14 03:40:58;;;;;;;;;;;;;;;-144.99;88.23;52505.16;5379639;26;19930;-67
2024/04/14 03:43:29;;;;;;;;;;;;;;;-144.99;88.39;52517.41;5371746;26;19934;-67
2024/04/14 03:45:58;;;;;;;;;;;;;;;-144.99;88.18;52494.97;5361921;26;19930;-67
2024/04/14 03:48:26;;;;;;;;;;;;;;;-144.99;87.91;52488.84;5372513;26;20176;-67
2024/04/14 03:50:52;;;;;;;;;;;;;;;-144.99;86.66;52517.41;5359827;26;19998;-66
2024/04/14 03:53:21;;;;;;;;;;;;;;;-144.99;86.04;52497.00;5368454;26;20462;-66
2024/04/14 03:55:50;;;;;;;;;;;;;;;-144.99;85.62;52507.19;5373914;26;19929;-66
2024/04/14 03:58:16;;;;;;;;;;;;;;;-144.99;84.86;52509.25;5370037;26;19937;-67
2024/04/14 04:00:48;;;;;;;;;;;;;;;-144.99;84.75;52529.63;5359371;26;19980;-66
2024/04/14 04:03:13;;;;;;;;;;;;;;;-144.99;84.17;52529.63;5366122;26;19998;-66
2024/04/14 04:05:42;;;;;;;;;;;;;;;-144.99;84.59;52474.59;5365673;26;20275;-66
2024/04/14 04:08:08;;;;;;;;;;;;;;;-144.99;85.14;52505.16;5371243;26;19929;-69
2024/04/14 04:10:37;;;;;;;;;;;;;;;-144.99;85.71;52488.84;5356405;26;19952;-68
2024/04/14 04:13:03;;;;;;;;;;;;;;;-144.99;86.39;52497.00;5376162;26;19929;-69
2024/04/14 04:15:31;;;;;;;;;;;;;;;-144.99;86.18;52501.09;5369020;26;19987;-70
2024/04/14 04:18:00;;;;;;;;;;;;;;;-144.99;87.22;52488.84;5372319;26;19995;-69
2024/04/14 04:20:28;;;;;;;;;;;;;;;-144.99;87.18;52513.31;5362325;26;20247;-69
2024/04/14 04:22:54;;;;;;;;;;;;;;;-144.99;87.36;52509.25;5376415;26;20207;-69
2024/04/14 04:25:24;;;;;;;;;;;;;;;-144.99;87.49;52472.56;5362742;26;20502;-69
2024/04/14 04:27:49;;;;;;;;;;;;;;;-144.99;87.22;52527.59;5373945;26;19929;-69
2024/04/14 04:30:18;;;;;;;;;;;;;;;-144.99;87.42;52521.47;5362829;26;20368;-69
2024/04/14 04:32:44;;;;;;;;;;;;;;;-144.99;87.25;52472.56;5368084;26;19937;-68
2024/04/14 04:35:15;;;;;;;;;;;;;;;-144.99;87.18;52515.34;5362858;26;19941;-65
2024/04/14 04:37:41;;;;;;;;;;;;;;;-144.99;86.71;52509.25;5375998;26;19965;-66
2024/04/14 04:40:10;;;;;;;;;;;;;;;-144.99;86.77;52501.09;5365266;26;20022;-66
2024/04/14 04:42:36;;;;;;;;;;;;;;;-144.99;86.06;52482.75;5360913;26;19930;-70
2024/04/14 04:45:04;;;;;;;;;;;;;;;-144.99;86.16;52480.72;5373318;26;20491;-70
2024/04/14 04:47:30;;;;;;;;;;;;;;;-144.99;85.63;52499.06;5373226;26;19929;-70
2024/04/14 04:49:59;;;;;;;;;;;;;;;-144.99;85.42;52439.94;5360723;26;19930;-72
2024/04/14 04:52:27;;;;;;;;;;;;;;;-144.99;85.68;52501.09;5365744;26;20336;-71
2024/04/14 04:54:56;;;;;;;;;;;;;;;-144.99;85.41;52521.47;5371651;26;19933;-73
2024/04/14 04:57:22;;;;;;;;;;;;;;;-144.99;85.05;52484.78;5373804;26;19941;-72
2024/04/14 04:59:50;;;;;;;;;;;;;;;-144.99;84.42;52501.09;5364738;26;19941;-72
2024/04/14 05:02:16;;;;;;;;;;;;;;;-144.99;83.94;52517.41;5372262;26;19929;-67
2024/04/14 05:04:44;;;;;;;;;;;;;;;-144.99;83.66;52484.78;5374212;26;20315;-67
2024/04/14 05:07:10;;;;;;;;;;;;;;;-144.99;83.24;52529.63;5374199;26;19958;-68
2024/04/14 05:09:42;;;;;;;;;;;;;;;-144.99;82.46;52488.84;5371347;26;20294;-69
2024/04/14 05:12:07;;;;;;;;;;;;;;;-144.99;82.32;52490.91;5372599;26;19937;-68
2024/04/14 05:14:36;;;;;;;;;;;;;;;-144.99;82.00;52521.47;5360097;26;19930;-68
2024/04/14 05:17:02;;;;;;;;;;;;;;;-144.99;81.66;52533.69;5375360;26;20045;-68
2024/04/14 05:19:30;;;;;;;;;;;;;;;-144.99;81.79;52490.91;5381013;26;20003;-69
2024/04/14 05:21:56;;;;;;;;;;;;;;;-144.99;82.18;52494.97;5371973;26;19937;-68
2024/04/14 05:24:25;;;;;;;;;;;;;;;-144.99;81.69;52501.09;5368339;26;19929;-68
2024/04/14 05:26:53;;;;;;;;;;;;;;;-144.99;81.44;52464.41;5365331;26;19934;-68
2024/04/14 05:29:23;;;;;;;;;;;;;;;-144.99;81.47;52476.63;5374779;26;20280;-69
2024/04/14 05:31:49;;;;;;;;;;;;;;;-144.99;82.25;52448.09;5366809;26;19945;-69
2024/04/14 05:34:18;;;;;;;;;;;;;;;-144.99;83.50;52488.84;5367713;26;19975;-70
2024/04/14 05:36:44;;;;;;;;;;;;;;;-144.99;84.33;52517.41;5372764;26;20379;-69
2024/04/14 05:39:10;;;;;;;;;;;;;;;-144.99;83.75;52505.16;5374295;26;19937;-68
2024/04/14 05:41:38;;;;;;;;;;;;;;;-144.99;84.15;52480.72;5372590;26;20431;-70
2024/04/14 05:44:07;;;;;;;;;;;;;;;-144.99;83.46;52484.78;5366328;26;19930;-70
2024/04/14 05:46:35;;;;;;;;;;;;;;;-144.99;82.70;52456.25;5374836;26;19934;-68
2024/04/14 05:49:03;;;;;;;;;;;;;;;-144.99;82.53;52456.25;5362171;26;20392;-64
2024/04/14 05:51:31;;;;;;;;;;;;;;;-144.99;82.30;52468.47;5365331;26;20005;-65
2024/04/14 05:53:57;;;;;;;;;;;;;;;-144.99;81.79;52492.94;5358948;26;19937;-66
2024/04/14 05:56:26;;;;;;;;;;;;;;;-144.99;81.64;52470.50;5356124;26;19957;-65
2024/04/14 05:58:51;;;;;;;;;;;;;;;-144.99;81.84;52466.44;5365942;26;20213;-65
2024/04/14 06:01:23;;;;;;;;;;;;;;;-144.99;81.15;52423.63;5372704;26;19941;-66
2024/04/14 06:03:49;;;;;;;;;;;;;;;-144.99;81.35;52446.06;5368826;26;19930;-66
2024/04/14 06:06:17;;;;;;;;;;;;;;;-144.99;80.80;52488.84;5365605;26;20236;-66
2024/04/14 06:08:43;;;;;;;;;;;;;;;-144.99;80.39;52488.84;5369990;26;19953;-66
2024/04/14 06:11:12;;;;;;;;;;;;;;;-144.99;80.08;52476.63;5358901;26;19930;-67
2024/04/14 06:13:37;;;;;;;;;;;;;;;-144.99;80.18;52476.63;5359483;26;19930;-67
2024/04/14 06:16:06;;;;;;;;;;;;;;;-144.99;80.21;52456.25;5370331;26;20370;-66
2024/04/14 06:18:35;;;;;;;;;;;;;;;-144.99;79.69;52505.16;5362886;26;20256;-66
2024/04/14 06:21:03;;;;;;;;;;;;;;;-144.99;78.72;52441.97;5371600;26;20009;-67
2024/04/14 06:23:29;;;;;;;;;;;;;;;-144.99;79.21;52472.56;5361810;26;19933;-67
2024/04/14 06:25:59;;;;;;;;;;;;;;;-144.99;78.71;52468.47;5376753;26;19959;-67
2024/04/14 06:28:25;;;;;;;;;;;;;;;-144.99;78.06;52464.41;5367325;26;19945;-67
2024/04/14 06:30:54;;;;;;;;;;;;;;;-144.99;77.28;52497.00;5372142;26;19937;-66
2024/04/14 06:33:20;;;;;;;;;;;;;;;-144.99;76.78;52492.94;5370088;26;19929;-64
2024/04/14 06:35:54;;;;;;;;;;;;;;;-144.99;76.61;52497.00;5369453;26;19937;-66
2024/04/14 06:38:20;;;;;;;;;;;;;;;-144.99;76.55;52452.16;5362139;26;19973;-66
2024/04/14 06:40:49;;;;;;;;;;;;;;;-144.99;75.97;52476.63;5367060;26;19960;-65
2024/04/14 06:43:16;;;;;;;;;;;;;;;-144.99;75.93;52488.84;5372588;26;19929;-66
2024/04/14 06:45:48;;;;;;;;;;;;;;;-144.99;76.26;52517.41;5371702;26;19964;-66
2024/04/14 06:48:16;;;;;;;;;;;;;;;-144.99;76.36;52452.16;5358102;26;19966;-66
2024/04/14 06:50:45;;;;;;;;;;;;;;;-144.99;76.40;52476.63;5357726;26;19938;-67
2024/04/14 06:53:14;;;;;;;;;;;;;;;-144.99;74.82;52497.00;5370178;26;19930;-67
2024/04/14 06:55:44;;;;;;;;;;;;;;;-144.99;75.96;52488.84;5372337;26;20002;-68
2024/04/14 06:58:10;;;;;;;;;;;;;;;-144.99;76.03;52452.16;5377750;26;19933;-68
2024/04/14 07:00:38;;;;;;;;;;;;;;;-144.99;75.60;52468.47;5378027;26;19936;-69
2024/04/14 07:03:04;;;;;;;;;;;;;;;-144.99;75.03;52468.47;5369752;26;19929;-65
2024/04/14 07:05:33;;;;;;;;;;;;;;;-144.99;73.45;52497.00;5372533;26;19941;-72
2024/04/14 07:07:59;;;;;;;;;;;;;;;-144.99;75.72;52476.63;5368704;26;19930;-72
2024/04/14 07:10:30;;;;;;;;;;;;;;;-144.99;73.87;52494.97;5375227;26;20445;-72
2024/04/14 07:12:56;;;;;;;;;;;;;;;-144.99;72.92;52484.78;5375789;26;19930;-72
2024/04/14 07:15:25;;;;;;;;;;;;;;;-144.99;72.16;52456.25;5375326;26;19941;-72
2024/04/14 07:17:50;;;;;;;;;;;;;;;-144.99;71.73;52492.94;5414233;21;19929;-67
2024/04/14 07:20:20;;;;;;;;;;;;;;;-144.99;71.39;52478.66;5444485;26;19928;-68
2024/04/14 07:22:46;;;;;;;;;;;;;;;-144.99;71.18;52488.84;5439880;26;19928;-68
2024/04/14 07:25:14;;;;;;;;;;;;;;;-144.99;72.43;52464.41;5435678;26;19952;-68
2024/04/14 07:27:46;;;;;;;;;;;;;;;-144.99;70.48;52480.72;5441607;26;19940;-68
2024/04/14 07:30:15;;;;;;;;;;;;;;;-144.99;69.43;52456.25;5442061;26;19929;-68
2024/04/14 07:32:41;;;;;;;;;;;;;;;-144.99;68.63;52431.78;5441140;26;19935;-68
2024/04/14 07:35:09;;;;;;;;;;;;;;;-144.99;68.51;52441.97;5438472;26;20028;-66
2024/04/14 07:37:35;;;;;;;;;;;;;;;-144.99;68.38;52468.47;5444725;26;20457;-67
2024/04/14 07:40:04;;;;;;;;;;;;;;;-144.99;68.14;52446.06;5446112;26;20059;-68
2024/04/14 07:42:30;;;;;;;;;;;;;;;-144.99;68.55;52423.63;5443343;26;19932;-68
2024/04/14 07:45:01;;;;;;;;;;;;;;;-144.99;68.00;52452.16;5442416;26;19997;-68
2024/04/14 07:47:27;;;;;;;;;;;;;;;-144.99;67.13;52497.00;5443475;26;19936;-67
2024/04/14 07:49:56;;;;;;;;;;;;;;;-144.99;69.01;52480.72;5429635;26;20020;-68
2024/04/14 07:52:22;;;;;;;;;;;;;;;-144.99;66.76;52468.47;5437220;26;20219;-68
2024/04/14 07:54:50;;;;;;;;;;;;;;;-144.99;65.43;52468.47;5428142;26;19998;-68
2024/04/14 07:57:16;;;;;;;;;;;;;;;-144.99;65.83;52476.63;5445027;26;19928;-68
2024/04/14 07:59:44;;;;;;;;;;;;;;;-144.99;66.41;52468.47;5431848;26;20349;-68
2024/04/14 08:02:13;;;;;;;;;;;;;;;-144.99;65.98;52501.09;5443069;26;19928;-65
2024/04/14 08:04:42;;;;;;;;;;;;;;;-144.99;66.96;52437.91;5441055;26;20001;-65
2024/04/14 08:07:07;;;;;;;;;;;;;;;-144.99;65.63;52464.41;5439489;26;20387;-65
2024/04/14 08:09:36;;;;;;;;;;;;;;;-144.99;64.14;52429.75;5445512;26;19934;-65
2024/04/14 08:12:02;;;;;;;;;;;;;;;-144.99;65.00;52456.25;5446246;26;19929;-66
2024/04/14 08:14:30;;;;;;;;;;;;;;;-144.99;65.05;52470.50;5440744;26;20009;-65
2024/04/14 08:16:56;;;;;;;;;;;;;;;-144.99;63.94;52439.94;5436347;26;19940;-68
2024/04/14 08:19:27;;;;;;;;;;;;;;;-144.99;63.84;52439.94;5433860;26;20354;-68
2024/04/14 08:21:53;;;;;;;;;;;;;;;-144.99;62.86;52441.97;5441836;26;19935;-68
2024/04/14 08:24:22;;;;;;;;;;;;;;;-144.99;63.47;52439.94;5441585;26;19940;-67
2024/04/14 08:26:48;;;;;;;;;;;;;;;-144.99;63.82;52411.41;5424000;26;19936;-67
2024/04/14 08:29:16;;;;;;;;;;;;;;;-144.99;62.27;52456.25;5436460;26;19970;-67
2024/04/14 08:31:42;;;;;;;;;;;;;;;-144.99;61.83;52468.47;5433660;26;19935;-67
2024/04/14 08:34:11;;;;;;;;;;;;;;;-144.99;62.31;52472.56;5444389;26;19940;-67
2024/04/14 08:36:39;;;;;;;;;;;;;;;-144.99;63.04;52448.09;5444902;26;19928;-68
2024/04/14 08:39:08;;;;;;;;;;;;;;;-144.99;61.86;52419.56;5437599;26;19936;-67
2024/04/14 08:41:34;;;;;;;;;;;;;;;-144.99;62.14;52464.41;5446036;26;19970;-67
2024/04/14 08:44:03;;;;;;;;;;;;;;;-144.99;61.75;52456.25;5443564;26;19932;-66
2024/04/14 08:46:31;;;;;;;;;;;;;;;-144.99;61.38;52476.63;5446698;26;19935;-66
2024/04/14 08:49:01;;;;;;;;;;;;;;;-144.99;61.73;52448.09;5436995;26;19928;-66
2024/04/14 08:51:29;;;;;;;;;;;;;;;-144.99;61.82;52456.25;5445750;26;20259;-68
2024/04/14 08:54:01;;;;;;;;;;;;;;;-144.99;60.94;52433.81;5438935;26;20001;-73
2024/04/14 08:56:27;;;;;;;;;;;;;;;-144.99;60.36;52423.63;5428205;26;20023;-67
2024/04/14 08:58:59;;;;;;;;;;;;;;;-144.99;60.94;52468.47;5429657;26;19933;-67
2024/04/14 09:01:25;;;;;;;;;;;;;;;-144.99;60.83;52429.75;5443200;26;19935;-66
2024/04/14 09:03:54;;;;;;;;;;;;;;;-144.99;61.73;52444.03;5444289;26;19936;-67
2024/04/14 09:06:21;;;;;;;;;;;;;;;-144.99;61.86;52468.47;5448767;26;19929;-67
2024/04/14 09:08:49;;;;;;;;;;;;;;;-144.99;64.00;52462.34;5437254;26;19951;-68
2024/04/14 09:11:19;;;;;;;;;;;;;;;-144.99;65.25;52501.09;5437275;26;19928;-66
2024/04/14 09:13:48;;;;;;;;;;;;;;;-144.99;66.15;52480.72;5447203;26;19936;-67
2024/04/14 09:16:17;;;;;;;;;;;;;;;-144.99;66.05;52468.47;5446014;26;19950;-67
2024/04/14 09:18:46;;;;;;;;;;;;;;;-144.99;64.38;52476.63;5444786;26;19933;-66
2024/04/14 09:21:11;;;;;;;;;;;;;;;-144.99;61.17;52482.75;5443343;26;20363;-66
2024/04/14 09:23:40;;;;;;;;;;;;;;;-144.99;60.61;52464.41;5441580;26;19957;-67
2024/04/14 09:26:06;;;;;;;;;;;;;;;-144.99;59.58;52439.94;5437006;26;19928;-66
2024/04/14 09:28:38;;;;;;;;;;;;;;;-144.99;58.79;52456.25;5440047;26;20305;-67
2024/04/14 09:31:06;;;;;;;;;;;;;;;-144.99;58.48;52427.72;5437391;26;19929;-67
2024/04/14 09:33:34;;;;;;;;;;;;;;;-144.99;58.06;52427.72;5438158;26;19928;-67
2024/04/14 09:36:00;;;;;;;;;;;;;;;-144.99;58.11;52378.78;5445554;26;19932;-67
2024/04/14 09:38:30;;;;;;;;;;;;;;;-144.99;58.24;52456.25;5440023;26;19985;-66
2024/04/14 09:40:57;;;;;;;;;;;;;;;-144.99;56.96;52476.63;5443047;26;20369;-66
2024/04/14 09:43:26;;;;;;;;;;;;;;;-144.99;58.14;52427.72;5431083;26;19952;-65
2024/04/14 09:45:55;;;;;;;;;;;;;;;-144.99;58.79;52399.19;5439510;26;19929;-65
2024/04/14 09:48:25;;;;;;;;;;;;;;;-144.99;58.74;52423.63;5440377;26;19932;-65
2024/04/14 09:50:52;;;;;;;;;;;;;;;-144.99;56.87;52391.03;5445119;26;19928;-65
2024/04/14 09:53:22;;;;;;;;;;;;;;;-144.99;56.79;52374.72;5434454;26;20032;-66
2024/04/14 09:55:48;;;;;;;;;;;;;;;-144.99;55.63;52382.88;5444191;26;20171;-65
2024/04/14 09:58:16;;;;;;;;;;;;;;;-144.99;55.27;52431.78;5443055;26;20018;-65
2024/04/14 10:00:43;;;;;;;;;;;;;;;-144.99;55.90;52382.88;5445414;26;19939;-66
2024/04/14 10:03:16;;;;;;;;;;;;;;;-144.99;56.81;52413.44;5443957;26;19929;-65
2024/04/14 10:05:42;;;;;;;;;;;;;;;-144.99;57.69;52407.31;5440232;26;19935;-67
2024/04/14 10:08:11;;;;;;;;;;;;;;;-144.99;57.32;52399.19;5446091;26;19928;-67
2024/04/14 10:10:37;;;;;;;;;;;;;;;-144.99;56.79;52378.78;5447228;26;20035;-67
2024/04/14 10:13:09;;;;;;;;;;;;;;;-144.99;56.36;52366.56;5446823;26;19929;-67
2024/04/14 10:15:37;;;;;;;;;;;;;;;-144.99;55.91;52386.94;5443038;26;19929;-67
2024/04/14 10:18:11;;;;;;;;;;;;;;;-144.99;55.03;52437.91;5446574;26;19929;-67
2024/04/14 10:20:43;;;;;;;;;;;;;;;-144.99;54.94;52358.41;5423295;26;19936;-67
2024/04/14 10:23:12;;;;;;;;;;;;;;;-144.99;54.08;52333.94;5445740;26;19937;-66
2024/04/14 10:25:44;;;;;;;;;;;;;;;-144.99;53.05;52378.78;5442040;26;19928;-67
2024/04/14 10:28:13;;;;;;;;;;;;;;;-144.99;53.27;52380.84;5444803;26;19956;-67
2024/04/14 10:30:39;;;;;;;;;;;;;;;-144.99;54.10;52350.25;5446203;26;19936;-67
2024/04/14 10:33:08;;;;;;;;;;;;;;;-144.99;54.39;52409.38;5445339;26;20362;-67
2024/04/14 10:35:34;;;;;;;;;;;;;;;-144.99;54.68;52338.03;5442365;26;20273;-67
2024/04/14 10:38:05;;;;;;;;;;;;;;;-144.99;54.26;52289.13;5444924;26;20211;-67
2024/04/14 10:40:31;;;;;;;;;;;;;;;-144.99;53.37;52301.34;5445074;26;20378;-66
2024/04/14 10:43:00;;;;;;;;;;;;;;;-144.99;53.06;52305.41;5447672;26;19928;-67
2024/04/14 10:45:26;;;;;;;;;;;;;;;-144.99;54.12;52358.41;5448760;26;19928;-66
2024/04/14 10:47:57;;;;;;;;;;;;;;;-144.99;54.33;52331.91;5449229;26;19961;-67
2024/04/14 10:50:24;;;;;;;;;;;;;;;-144.99;54.43;52303.38;5443213;26;19939;-66
2024/04/14 10:52:53;;;;;;;;;;;;;;;-144.99;54.64;52372.69;5448030;26;20001;-66
2024/04/14 10:55:22;;;;;;;;;;;;;;;-144.99;53.04;52346.19;5448503;26;19970;-66
2024/04/14 10:57:50;;;;;;;;;;;;;;;-144.99;52.75;52423.63;5443291;26;19940;-65
2024/04/14 11:00:17;;;;;;;;;;;;;;;-144.99;54.75;52409.38;5448091;26;20355;-66
2024/04/14 11:02:46;;;;;;;;;;;;;;;-144.99;56.96;52427.72;5448582;26;19929;-66
2024/04/14 11:05:12;;;;;;;;;;;;;;;-144.99;56.69;52456.25;5447578;26;20303;-66
2024/04/14 11:07:41;;;;;;;;;;;;;;;-144.99;56.46;52452.16;5446320;26;20250;-65
2024/04/14 11:10:08;;;;;;;;;;;;;;;-144.99;56.86;52448.09;5446562;26;20327;-65
2024/04/14 11:12:40;;;;;;;;;;;;;;;-144.99;56.54;52297.25;5442456;26;19932;-67
2024/04/14 11:15:06;;;;;;;;;;;;;;;-144.99;55.95;52386.94;5445805;26;19928;-67
2024/04/14 11:17:35;;;;;;;;;;;;;;;-144.99;53.93;52395.09;5447373;26;19928;-67
2024/04/14 11:20:01;;;;;;;;;;;;;;;-144.99;54.01;52221.84;5445618;26;20265;-67
2024/04/14 11:22:30;;;;;;;;;;;;;;;-144.99;53.20;52342.09;5445576;26;19934;-66
2024/04/14 11:24:58;;;;;;;;;;;;;;;-144.99;53.37;52374.72;5443670;26;20005;-67
2024/04/14 11:27:26;;;;;;;;;;;;;;;-144.99;53.78;52272.81;5448533;26;19939;-67
2024/04/14 11:29:55;;;;;;;;;;;;;;;-144.99;53.85;52415.47;5448185;26;19936;-65
2024/04/14 11:32:35;;;;;;;;;;;;;;;-144.99;53.47;52248.34;5438577;26;19929;-67
2024/04/14 11:35:02;;;;;;;;;;;;;;;-144.99;52.98;52407.31;5447760;26;20330;-66
2024/04/14 11:37:31;;;;;;;;;;;;;;;-144.99;51.85;52280.97;5448453;26;19957;-66
2024/04/14 11:39:58;;;;;;;;;;;;;;;-144.99;51.09;52234.09;5442108;26;20027;-66
2024/04/14 11:42:26;;;;;;;;;;;;;;;-144.99;50.46;52219.81;5437102;26;19935;-66
2024/04/14 11:44:55;;;;;;;;;;;;;;;-144.99;50.93;52260.56;5447862;26;19996;-66
2024/04/14 11:47:25;;;;;;;;;;;;;;;-144.99;51.17;52211.66;5446706;26;19928;-66
2024/04/14 11:49:51;;;;;;;;;;;;;;;-144.99;52.37;52380.84;5438284;26;19929;-67
2024/04/14 11:52:19;;;;;;;;;;;;;;;-144.99;52.94;52242.22;5446755;26;20442;-67
2024/04/14 11:54:45;;;;;;;;;;;;;;;-144.99;53.25;52407.31;5446550;26;20370;-66
2024/04/14 11:57:13;;;;;;;;;;;;;;;-144.99;53.01;52421.59;5441959;26;19929;-66
2024/04/14 11:59:39;;;;;;;;;;;;;;;-144.99;53.43;52260.56;5447518;26;20034;-66
2024/04/14 12:02:10;;;;;;;;;;;;;;;-144.99;53.51;52244.28;5447031;26;20358;-67
2024/04/14 12:04:36;;;;;;;;;;;;;;;-144.99;53.20;52219.81;5447285;26;19936;-64
2024/04/14 12:07:05;;;;;;;;;;;;;;;-144.99;52.10;52238.16;5433138;26;19932;-69
2024/04/14 12:09:31;;;;;;;;;;;;;;;-144.99;52.95;52386.94;5447050;26;20386;-66
2024/04/14 12:11:59;;;;;;;;;;;;;;;-144.99;53.58;52423.63;5444376;26;20409;-66
2024/04/14 12:14:25;;;;;;;;;;;;;;;-144.99;54.22;52415.47;5445568;26;19929;-66
2024/04/14 12:16:56;;;;;;;;;;;;;;;-144.99;54.92;52303.38;5446066;26;20009;-66
2024/04/14 12:19:25;;;;;;;;;;;;;;;-144.99;55.17;52399.19;5440273;26;19928;-66
2024/04/14 12:21:53;;;;;;;;;;;;;;;-144.99;55.82;52393.06;5446858;26;19978;-66
2024/04/14 12:24:19;;;;;;;;;;;;;;;-144.99;54.96;52240.19;5442629;26;20270;-65
2024/04/14 12:26:47;;;;;;;;;;;;;;;-144.99;53.73;52256.50;5446519;26;19979;-66
2024/04/14 12:29:13;;;;;;;;;;;;;;;-144.99;53.82;52219.81;5439491;26;19944;-66